createdAt,value
2022-09-12T00:01:56.566Z,0.75
2022-09-12T00:04:29.027Z,0.20
2022-09-12T00:06:59.734Z,0.10
2022-09-12T00:09:32.314Z,0.20
2022-09-12T00:12:02.912Z,0.20
2022-09-12T00:14:33.487Z,0.30
2022-09-12T00:17:04.254Z,0.25
2022-09-12T00:19:34.418Z,0.20
2022-09-12T00:22:04.620Z,0.43
2022-09-12T00:24:36.284Z,0.30
2022-09-12T00:27:06.624Z,0.20
2022-09-12T00:29:37.373Z,0.13
2022-09-12T00:32:07.668Z,0.20
2022-09-12T00:34:38.577Z,0.32
2022-09-12T00:37:09.133Z,0.35
2022-09-12T00:39:40.790Z,0.47
2022-09-12T00:42:13.968Z,0.20
2022-09-12T00:44:50.661Z,0.20
2022-09-12T00:47:36.508Z,0.20
2022-09-12T00:50:19.645Z,0.38
2022-09-12T00:52:54.543Z,0.30
2022-09-12T00:55:34.424Z,0.20
2022-09-12T00:58:07.410Z,0.20
2022-09-12T01:00:38.404Z,0.20
2022-09-12T01:03:21.422Z,0.40
2022-09-12T01:06:19.069Z,0.25
2022-09-12T01:08:50.924Z,0.20
2022-09-12T01:11:25.990Z,0.85
2022-09-12T01:13:58.347Z,0.30
2022-09-12T01:16:28.977Z,0.65
2022-09-12T01:19:38.823Z,0.30
2022-09-12T01:22:27.347Z,0.20
2022-09-12T01:25:22.453Z,0.20
2022-09-12T01:28:38.315Z,0.15
2022-09-12T01:31:29.573Z,0.20
2022-09-12T01:34:13.997Z,0.20
2022-09-12T01:37:01.660Z,0.10
2022-09-12T01:39:45.131Z,0.20
2022-09-12T01:42:35.835Z,0.40
2022-09-12T01:45:35.802Z,0.20
2022-09-12T01:48:22.097Z,0.40
2022-09-12T01:51:15.118Z,0.32
2022-09-12T01:53:51.965Z,0.10
2022-09-12T01:56:28.875Z,0.75
2022-09-12T02:01:44.838Z,0.25
2022-09-12T02:04:22.770Z,0.32
2022-09-12T02:07:00.624Z,0.35
2022-09-12T02:09:40.218Z,0.20
2022-09-12T02:12:14.949Z,0.10
2022-09-12T02:14:51.733Z,0.10
2022-09-12T02:17:28.059Z,0.17
2022-09-12T02:20:44.406Z,0.17
2022-09-12T02:23:16.130Z,0.13
2022-09-12T02:25:49.735Z,0.28
2022-09-12T02:28:40.328Z,0.10
2022-09-12T02:31:24.338Z,0.38
2022-09-12T02:34:12.897Z,0.10
2022-09-12T02:37:22.213Z,0.15
2022-09-12T02:39:53.129Z,0.17
2022-09-12T02:42:24.147Z,0.20
2022-09-12T02:44:57.030Z,0.25
2022-09-12T02:47:45.084Z,0.40
2022-09-12T02:50:16.418Z,0.20
2022-09-12T02:52:47.957Z,0.20
2022-09-12T02:55:18.828Z,0.20
2022-09-12T02:57:49.507Z,0.30
2022-09-12T03:00:20.368Z,0.22
2022-09-12T03:03:27.092Z,0.30
2022-09-12T03:06:39.822Z,0.20
2022-09-12T03:09:22.755Z,0.40
2022-09-12T03:12:12.866Z,0.20
2022-09-12T03:15:03.263Z,0.28
2022-09-12T03:17:57.381Z,0.25
2022-09-12T03:20:49.960Z,0.10
2022-09-12T03:23:20.508Z,0.20
2022-09-12T03:26:02.479Z,0.10
2022-09-12T03:28:34.494Z,0.20
2022-09-12T03:31:19.921Z,0.38
2022-09-12T03:33:50.775Z,0.10
2022-09-12T03:36:30.209Z,0.28
2022-09-12T03:39:00.591Z,0.10
2022-09-12T03:41:31.244Z,0.10
2022-09-12T03:44:01.546Z,0.10
2022-09-12T03:46:32.509Z,0.73
2022-09-12T03:49:03.373Z,0.20
2022-09-12T03:51:33.976Z,0.30
2022-09-12T03:54:04.665Z,0.10
2022-09-12T03:56:35.549Z,2.97
2022-09-12T03:59:09.210Z,0.20
2022-09-12T04:01:40.158Z,0.28
2022-09-12T04:04:11.920Z,0.25
2022-09-12T04:06:43.666Z,0.35
2022-09-12T04:09:13.811Z,0.20
2022-09-12T04:11:44.428Z,0.30
2022-09-12T04:14:14.614Z,0.22
2022-09-12T04:16:44.902Z,0.20
2022-09-12T04:19:15.599Z,0.10
2022-09-12T04:21:46.272Z,0.15
2022-09-12T04:24:16.551Z,0.17
2022-09-12T04:26:47.338Z,0.13
2022-09-12T04:29:18.349Z,0.10
2022-09-12T04:31:48.990Z,0.30
2022-09-12T04:34:21.909Z,0.45
2022-09-12T04:36:54.108Z,0.15
2022-09-12T04:39:26.464Z,0.10
2022-09-12T04:41:59.333Z,0.10
2022-09-12T04:44:29.606Z,0.15
2022-09-12T04:47:00.076Z,0.20
2022-09-12T04:49:30.245Z,0.10
2022-09-12T04:52:00.609Z,0.10
2022-09-12T04:54:31.024Z,0.10
2022-09-12T04:57:01.649Z,0.10
2022-09-12T04:59:32.260Z,0.90
2022-09-12T05:02:03.140Z,0.20
2022-09-12T05:04:33.956Z,0.10
2022-09-12T05:07:06.246Z,0.10
2022-09-12T05:09:36.534Z,0.00
2022-09-12T05:12:07.741Z,0.10
2022-09-12T05:14:38.624Z,0.10
2022-09-12T05:17:09.365Z,0.10
2022-09-12T05:19:40.918Z,0.10
2022-09-12T05:22:13.508Z,0.10
2022-09-12T05:24:50.314Z,0.10
2022-09-12T05:27:21.216Z,0.20
2022-09-12T05:29:52.908Z,0.00
2022-09-12T05:32:23.464Z,0.43
2022-09-12T05:34:54.147Z,0.10
2022-09-12T05:37:25.894Z,0.10
2022-09-12T05:39:57.396Z,0.10
2022-09-12T05:42:28.170Z,1.17
2022-09-12T05:45:00.551Z,0.10
2022-09-12T05:47:31.189Z,0.13
2022-09-12T05:50:02.125Z,0.10
2022-09-12T05:52:34.825Z,0.10
2022-09-12T05:55:05.819Z,0.10
2022-09-12T05:57:37.494Z,0.10
2022-09-12T06:00:11.742Z,0.10
2022-09-12T06:02:42.493Z,0.17
2022-09-12T06:05:14.841Z,0.20
2022-09-12T06:07:45.416Z,0.20
2022-09-12T06:10:15.883Z,0.20
2022-09-12T06:12:46.111Z,0.20
2022-09-12T06:15:18.559Z,0.20
2022-09-12T06:17:51.598Z,0.50
2022-09-12T06:20:21.946Z,0.20
2022-09-12T06:22:56.109Z,0.30
2022-09-12T06:25:27.733Z,0.10
2022-09-12T06:27:58.819Z,0.10
2022-09-12T06:30:29.693Z,0.10
2022-09-12T06:32:59.985Z,0.10
2022-09-12T06:35:30.507Z,0.13
2022-09-12T06:38:03.209Z,0.20
2022-09-12T06:40:35.393Z,0.10
2022-09-12T06:43:06.068Z,0.10
2022-09-12T06:45:36.728Z,0.30
2022-09-12T06:48:07.429Z,0.52
2022-09-12T06:50:37.620Z,0.30
2022-09-12T06:53:07.866Z,0.22
2022-09-12T06:55:38.042Z,0.15
2022-09-12T06:58:08.606Z,0.20
2022-09-12T07:00:38.767Z,0.28
2022-09-12T07:03:10.035Z,0.10
2022-09-12T07:05:40.731Z,0.10
2022-09-12T07:08:11.598Z,0.10
2022-09-12T07:10:42.248Z,0.10
2022-09-12T07:13:12.931Z,1.40
2022-09-12T07:15:43.700Z,0.88
2022-09-12T07:18:14.324Z,0.38
2022-09-12T07:20:44.938Z,0.20
2022-09-12T07:23:16.909Z,0.20
2022-09-12T07:25:55.622Z,0.20
2022-09-12T07:28:27.540Z,0.40
2022-09-12T07:30:58.151Z,0.30
2022-09-12T07:33:32.504Z,0.30
2022-09-12T07:36:08.242Z,0.40
2022-09-12T07:38:40.859Z,0.32
2022-09-12T07:41:21.236Z,0.40
2022-09-12T07:43:56.585Z,0.30
2022-09-12T07:46:30.691Z,0.80
2022-09-12T07:49:03.614Z,0.60
2022-09-12T07:51:35.832Z,0.20
2022-09-12T07:54:11.606Z,0.20
2022-09-12T07:56:42.973Z,0.20
2022-09-12T07:59:21.619Z,0.22
2022-09-12T08:02:06.210Z,0.35
2022-09-12T08:04:38.485Z,0.30
2022-09-12T08:07:09.607Z,0.30
2022-09-12T08:09:41.915Z,0.10
2022-09-12T08:12:12.739Z,0.52
2022-09-12T08:14:43.999Z,0.70
2022-09-12T08:17:14.929Z,0.50
2022-09-12T08:19:46.943Z,0.30
2022-09-12T08:22:17.312Z,0.60
2022-09-12T08:24:47.433Z,0.30
2022-09-12T08:27:18.178Z,0.20
2022-09-12T08:29:48.792Z,0.13
2022-09-12T08:32:19.062Z,0.10
2022-09-12T08:34:49.244Z,0.17
2022-09-12T08:37:19.999Z,0.15
2022-09-12T08:39:52.431Z,0.20
2022-09-12T08:42:43.260Z,0.45
2022-09-12T08:45:23.467Z,0.20
2022-09-12T08:47:54.471Z,0.50
2022-09-12T08:50:25.440Z,0.20
2022-09-12T08:53:15.152Z,0.10
2022-09-12T08:55:48.803Z,0.50
2022-09-12T08:58:30.822Z,0.47
2022-09-12T09:01:38.096Z,0.20
2022-09-12T09:04:29.635Z,0.22
2022-09-12T09:07:25.294Z,0.38
2022-09-12T09:10:31.886Z,0.30
2022-09-12T09:13:24.741Z,0.47
2022-09-12T09:16:14.208Z,0.30
2022-09-12T09:18:50.548Z,0.30
2022-09-12T09:21:33.849Z,0.35
2022-09-12T09:24:08.679Z,0.30
2022-09-12T09:26:51.169Z,0.32
2022-09-12T09:29:22.678Z,0.70
2022-09-12T09:31:57.903Z,0.50
2022-09-12T09:34:33.391Z,0.30
2022-09-12T09:37:17.464Z,0.30
2022-09-12T09:40:11.745Z,0.30
2022-09-12T09:45:47.928Z,0.30
2022-09-12T09:48:37.157Z,0.20
2022-09-12T09:51:10.887Z,0.20
2022-09-12T09:53:52.587Z,0.20
2022-09-12T09:56:42.269Z,0.30
2022-09-12T09:59:21.008Z,0.30
2022-09-12T10:01:57.112Z,0.57
2022-09-12T10:04:35.159Z,0.30
2022-09-12T10:07:09.204Z,0.80
2022-09-12T10:09:41.565Z,0.73
2022-09-12T10:12:31.621Z,1.30
2022-09-12T10:15:20.156Z,0.70
2022-09-12T10:17:53.062Z,0.63
2022-09-12T10:20:46.365Z,0.60
2022-09-12T10:23:35.474Z,0.88
2022-09-12T10:26:12.291Z,1.50
2022-09-12T10:28:56.122Z,1.88
2022-09-12T10:31:41.077Z,1.83
2022-09-12T10:34:26.185Z,1.33
2022-09-12T10:37:02.352Z,1.50
2022-09-12T10:39:33.506Z,1.20
2022-09-12T10:42:05.481Z,3.00
2022-09-12T10:44:37.800Z,2.90
2022-09-12T10:47:27.219Z,2.60
2022-09-12T10:50:22.987Z,1.35
2022-09-12T10:55:38.471Z,1.35
2022-09-12T10:58:37.191Z,1.17
2022-09-12T11:01:43.497Z,1.30
2022-09-12T11:04:40.926Z,1.27
2022-09-12T11:07:24.432Z,2.15
2022-09-12T11:09:58.331Z,1.75
2022-09-12T11:12:51.534Z,2.90
2022-09-12T11:15:38.239Z,2.20
2022-09-12T11:18:35.251Z,1.87
2022-09-12T11:21:42.357Z,2.10
2022-09-12T11:24:31.356Z,1.27
2022-09-12T11:27:07.942Z,1.42
2022-09-12T11:29:47.937Z,1.80
2022-09-12T11:32:41.215Z,1.40
2022-09-12T11:35:36.119Z,2.47
2022-09-12T11:38:43.291Z,1.92
2022-09-12T11:41:31.596Z,1.40
2022-09-12T11:44:18.312Z,1.75
2022-09-12T11:46:51.934Z,1.80
2022-09-12T11:49:27.042Z,1.13
2022-09-12T11:52:22.044Z,1.33
2022-09-12T11:55:19.635Z,0.98
2022-09-12T11:57:57.769Z,1.70
2022-09-12T12:00:49.159Z,1.80
2022-09-12T12:03:45.512Z,2.03
2022-09-12T12:06:25.116Z,1.50
2022-09-12T12:08:55.974Z,1.17
2022-09-12T12:11:35.987Z,1.38
2022-09-12T12:14:24.911Z,1.50
2022-09-12T12:16:56.536Z,1.48
2022-09-12T12:19:39.570Z,1.23
2022-09-12T12:22:19.370Z,1.13
2022-09-12T12:25:18.356Z,0.90
2022-09-12T12:28:03.432Z,0.65
2022-09-12T12:30:35.705Z,0.95
2022-09-12T12:33:28.731Z,1.08
2022-09-12T12:36:02.277Z,0.90
2022-09-12T12:38:38.966Z,0.88
2022-09-12T12:41:21.422Z,0.85
2022-09-12T12:43:56.258Z,1.13
2022-09-12T12:46:29.879Z,0.95
2022-09-12T12:49:03.151Z,1.33
2022-09-12T12:51:56.203Z,1.40
2022-09-12T12:58:00.588Z,1.80
2022-09-12T13:00:34.239Z,1.60
2022-09-12T13:03:10.324Z,6.38
2022-09-12T13:05:48.631Z,4.77
2022-09-12T13:08:42.669Z,4.40
2022-09-12T13:11:29.838Z,4.22
2022-09-12T13:14:31.391Z,3.97
2022-09-12T13:17:09.351Z,3.13
2022-09-12T13:19:40.642Z,2.50
2022-09-12T13:22:12.434Z,2.65
2022-09-12T13:24:55.913Z,3.10
2022-09-12T13:27:27.787Z,1.95
2022-09-12T13:33:48.408Z,2.40
2022-09-12T13:48:11.785Z,2.17
2022-09-12T13:51:08.765Z,2.40
2022-09-12T13:54:08.768Z,2.20
2022-09-12T14:00:25.401Z,2.17
2022-09-12T14:14:21.547Z,2.92
2022-09-12T17:44:29.847Z,2.57
2022-09-12T17:55:28.204Z,2.20
2022-09-12T21:02:56.616Z,1.97
2022-09-12T21:05:27.375Z,1.13
2022-09-12T21:08:04.340Z,2.00
2022-09-12T21:10:58.210Z,2.00
2022-09-12T21:13:34.193Z,1.40
2022-09-12T21:16:15.996Z,1.83
2022-09-12T21:31:14.687Z,1.43
2022-09-12T21:33:50.642Z,1.80
2022-09-12T21:36:20.870Z,1.70
2022-09-12T21:38:51.154Z,1.73
2022-09-12T21:41:21.461Z,2.05
2022-09-12T21:43:52.395Z,1.90
2022-09-12T21:46:24.155Z,2.05
2022-09-12T21:48:54.784Z,1.45
2022-09-12T21:51:28.817Z,1.20
2022-09-12T21:54:21.205Z,1.67
2022-09-12T21:56:52.166Z,1.33
2022-09-12T21:59:29.920Z,1.50
2022-09-12T22:02:01.929Z,1.00
2022-09-12T22:04:34.556Z,1.42
2022-09-12T22:07:04.794Z,2.05
2022-09-12T22:09:36.074Z,1.10
2022-09-12T22:12:06.917Z,2.05
2022-09-12T22:14:38.379Z,1.48
2022-09-12T22:17:10.206Z,1.65
2022-09-12T22:19:40.951Z,1.02
2022-09-12T22:22:29.633Z,1.90
2022-09-12T22:25:00.615Z,1.38
2022-09-12T22:27:30.870Z,1.20
2022-09-12T22:30:01.112Z,1.33
2022-09-12T22:32:31.451Z,1.17
2022-09-12T22:35:02.191Z,1.40
2022-09-12T22:37:33.762Z,2.20
2022-09-12T22:40:04.376Z,1.80
2022-09-12T22:42:34.642Z,1.23
2022-09-12T22:45:06.070Z,1.30
2022-09-12T22:47:36.349Z,1.65
2022-09-12T22:50:06.947Z,1.60
2022-09-12T22:52:37.283Z,2.35
2022-09-12T22:55:07.819Z,1.25
2022-09-12T22:57:38.687Z,1.20
2022-09-12T23:00:12.232Z,1.10
2022-09-12T23:02:43.089Z,1.45
2022-09-12T23:05:14.020Z,1.10
2022-09-12T23:07:44.325Z,1.45
2022-09-12T23:10:14.685Z,1.10
2022-09-12T23:12:45.308Z,1.73
2022-09-12T23:15:16.217Z,1.33
2022-09-12T23:17:46.556Z,1.02
2022-09-12T23:20:16.913Z,0.85
2022-09-12T23:22:47.166Z,0.95
2022-09-12T23:25:17.844Z,0.75
2022-09-12T23:27:48.760Z,0.68
2022-09-12T23:30:23.019Z,0.85
2022-09-12T23:32:53.804Z,0.98
2022-09-12T23:35:24.146Z,0.88
2022-09-12T23:37:54.334Z,0.70
2022-09-12T23:40:24.508Z,0.90
2022-09-12T23:42:54.925Z,0.55
2022-09-12T23:45:25.195Z,0.57
2022-09-12T23:47:55.394Z,0.60
2022-09-12T23:50:25.543Z,0.40
2022-09-12T23:52:55.981Z,0.50
2022-09-12T23:55:27.335Z,1.13
2022-09-12T23:57:57.575Z,0.60
